Airfield :
LOGIN :

Register | Disclaimer

   EN    FR    IT 

 










Legend :    VFR   Marginal VFR   IFR   Intensive IFR   Very Intensive IFR
Visi :
Ceiling :
>= 8 km
>= 3000ft
5 to 8 km
1000 to 3000 ft
1500m to 5 km
500 to 1000 ft
800 to 1500m
200 to 500 ft
< 800m
< 200 ft
Symbols :   Thunderstorms  Fog  Heavy snow  Heavy precipitations  Wind > 20 kt
SIGMETs :     Misc.  Thunderstorms  Icing  Turbulence  Mountain Waves  Volcanic Ashes






- Airport Elevation : 274 ft
- IATA code : PUY


LDPL - Pula

CURRENT METAR :
  • 281930Z 05008KT 9999 FEW055 18/08 Q1021 NOSIG

EXPIRED METARs :
  • 281900Z 04004KT 360V080 CAVOK 18/08 Q1021 BECMG 06009KT
  • 281830Z 30003KT CAVOK 19/08 Q1021 BECMG 06009KT
  • 281800Z 28007KT CAVOK 20/07 Q1020 BECMG 06009KT
  • 281730Z 29007KT CAVOK 21/06 Q1020 NOSIG
  • 281700Z 27007KT 240V300 CAVOK 21/06 Q1020 NOSIG

TAF TAF LDPL
Valid from the 28 at 18:00 until the 29 at 18:00 UTC


281725Z 2818/2918 28008KT 9999 FEW050 TX22/2912Z TN13/2903Z
BECMG 2818/2820 06009KT
PROB30
TEMPO 2818/2907 06015G25KT



MET'MAP, your aeronautical weather chart ! - Copyright ORBIFLY December 2007 - Disclaimer

ORBIFLY MET'MAP TEAM :

Programming & Development : Alexandra Zaïnal
Concept & original design : Baudouin d'Aumeries
Assistance for programming : Marc-Olivier Méhu
Technical & hardware support : Manuel Goepfert

Contact : metmap@orbifly.com




SOURCES & CREDITS :

   NOAA